Time;durP1;ratioP1;P1;durP2;ratioP2;P2;SDS_P1;SDS_P2;PMS_P1;PMS_P2;Temp;Humidity;BMP_temperature;BMP_pressure;BME280_temperature;BME280_humidity;BME280_pressure;Samples;Min_cycle;Max_cycle;Signal;HPM_P1;HPM_P2
2023/09/24 00:00:59;;;;;;;4.57;3.63;;;;;;;;;;5003778;28;129544;-74
2023/09/24 00:03:25;;;;;;;17.83;4.00;;;;;;;;;;5006230;28;99168;-75
2023/09/24 00:05:52;;;;;;;8.98;3.97;;;;;;;;;;5004958;28;100708;-75
2023/09/24 00:08:19;;;;;;;6.80;3.80;;;;;;;;;;5006023;28;99940;-75
2023/09/24 00:10:47;;;;;;;6.43;4.15;;;;;;;;;;5005753;28;100606;-75
2023/09/24 00:13:14;;;;;;;5.20;3.70;;;;;;;;;;5002231;28;100255;-74
2023/09/24 00:15:40;;;;;;;13.55;4.07;;;;;;;;;;5006272;28;99952;-75
2023/09/24 00:18:07;;;;;;;7.35;3.70;;;;;;;;;;5009595;28;99057;-74
2023/09/24 00:20:34;;;;;;;4.25;3.80;;;;;;;;;;5007016;28;99031;-75
2023/09/24 00:23:01;;;;;;;8.75;4.30;;;;;;;;;;5006198;28;99594;-76
2023/09/24 00:25:28;;;;;;;8.50;4.97;;;;;;;;;;4999574;27;98852;-75
2023/09/24 00:27:56;;;;;;;7.95;4.03;;;;;;;;;;5006774;28;100354;-76
2023/09/24 00:30:23;;;;;;;7.03;4.15;;;;;;;;;;5004435;28;99261;-74
2023/09/24 00:32:51;;;;;;;15.75;4.20;;;;;;;;;;5005322;28;99831;-75
2023/09/24 00:35:18;;;;;;;8.43;4.60;;;;;;;;;;5005937;28;98883;-75
2023/09/24 00:37:45;;;;;;;8.38;4.45;;;;;;;;;;5007905;28;98905;-74
2023/09/24 00:40:11;;;;;;;8.90;4.38;;;;;;;;;;5007925;28;99416;-73
2023/09/24 00:42:38;;;;;;;9.35;5.30;;;;;;;;;;5006380;28;99178;-75
2023/09/24 00:45:06;;;;;;;10.52;4.70;;;;;;;;;;5009988;28;99667;-74
2023/09/24 00:47:33;;;;;;;4.78;4.28;;;;;;;;;;5005204;28;99403;-74
2023/09/24 00:49:59;;;;;;;7.43;4.72;;;;;;;;;;5005157;28;100882;-75
2023/09/24 00:52:26;;;;;;;10.13;4.68;;;;;;;;;;5003788;28;101859;-75
2023/09/24 00:54:53;;;;;;;5.97;5.07;;;;;;;;;;5005172;28;98805;-75
2023/09/24 00:57:20;;;;;;;6.18;4.45;;;;;;;;;;5004262;28;100326;-75
2023/09/24 00:59:46;;;;;;;10.27;4.97;;;;;;;;;;5003527;28;100249;-74
2023/09/24 01:02:13;;;;;;;5.25;4.28;;;;;;;;;;5005635;28;99849;-75
2023/09/24 01:04:41;;;;;;;11.35;5.63;;;;;;;;;;5004896;28;99523;-76
2023/09/24 01:07:08;;;;;;;6.78;4.72;;;;;;;;;;5005152;28;98892;-75
2023/09/24 01:09:35;;;;;;;11.13;4.88;;;;;;;;;;5002725;28;100489;-74
2023/09/24 01:12:03;;;;;;;11.57;5.07;;;;;;;;;;5004944;28;99049;-73
2023/09/24 01:14:29;;;;;;;5.60;5.10;;;;;;;;;;5004557;28;100090;-74
2023/09/24 01:16:56;;;;;;;9.00;4.85;;;;;;;;;;5005577;28;99577;-73
2023/09/24 01:19:23;;;;;;;10.95;5.38;;;;;;;;;;5006125;28;99085;-74
2023/09/24 01:21:50;;;;;;;8.23;5.65;;;;;;;;;;5004223;28;99709;-75
2023/09/24 01:24:16;;;;;;;7.32;5.30;;;;;;;;;;5009004;28;101326;-75
2023/09/24 01:26:44;;;;;;;11.52;5.78;;;;;;;;;;5003767;28;100547;-74
2023/09/24 01:29:11;;;;;;;7.57;5.38;;;;;;;;;;5004035;28;99980;-73
2023/09/24 01:31:38;;;;;;;21.70;6.30;;;;;;;;;;5005392;28;100153;-74
2023/09/24 01:34:05;;;;;;;7.05;5.47;;;;;;;;;;5004925;28;98943;-75
2023/09/24 01:36:33;;;;;;;7.80;5.20;;;;;;;;;;5004918;28;99915;-75
2023/09/24 01:38:59;;;;;;;6.68;5.45;;;;;;;;;;5005951;28;98739;-74
2023/09/24 01:41:27;;;;;;;11.77;6.03;;;;;;;;;;5004698;28;98965;-74
2023/09/24 01:43:54;;;;;;;12.00;6.30;;;;;;;;;;5002884;28;99788;-74
2023/09/24 01:46:21;;;;;;;10.00;5.50;;;;;;;;;;5005912;28;102500;-73
2023/09/24 01:48:51;;;;;;;9.07;5.28;;;;;;;;;;5003912;28;100035;-75
2023/09/24 01:51:20;;;;;;;11.40;6.78;;;;;;;;;;4997898;28;100293;-74
2023/09/24 01:53:47;;;;;;;12.52;6.00;;;;;;;;;;5001817;28;101590;-74
2023/09/24 01:56:17;;;;;;;10.00;5.65;;;;;;;;;;5002373;28;101520;-75
2023/09/24 01:58:44;;;;;;;7.65;5.68;;;;;;;;;;5002807;28;100244;-74
2023/09/24 02:01:11;;;;;;;9.80;5.90;;;;;;;;;;5001833;28;100041;-75
2023/09/24 02:03:39;;;;;;;8.95;5.82;;;;;;;;;;5005094;28;99601;-74
2023/09/24 02:06:06;;;;;;;7.88;5.60;;;;;;;;;;5002867;28;100587;-74
2023/09/24 02:08:33;;;;;;;8.13;6.00;;;;;;;;;;5005352;28;99449;-75
2023/09/24 02:11:00;;;;;;;12.25;6.53;;;;;;;;;;5001855;28;100893;-75
2023/09/24 02:13:27;;;;;;;12.77;6.80;;;;;;;;;;5002543;28;102196;-74
2023/09/24 02:15:54;;;;;;;8.07;6.47;;;;;;;;;;5003780;28;98765;-74
2023/09/24 02:18:22;;;;;;;11.25;5.80;;;;;;;;;;5001309;28;100099;-75
2023/09/24 02:20:51;;;;;;;11.63;5.85;;;;;;;;;;5002800;28;100426;-74
2023/09/24 02:23:19;;;;;;;9.75;6.10;;;;;;;;;;5003422;28;98843;-74
2023/09/24 02:25:45;;;;;;;12.52;5.68;;;;;;;;;;5004033;28;99098;-73
2023/09/24 02:28:12;;;;;;;17.08;6.47;;;;;;;;;;5006719;28;99233;-74
2023/09/24 02:30:40;;;;;;;9.02;5.45;;;;;;;;;;5003744;28;100749;-76
2023/09/24 02:33:07;;;;;;;8.57;5.82;;;;;;;;;;5002639;28;99625;-73
2023/09/24 02:35:35;;;;;;;12.35;6.72;;;;;;;;;;5003891;28;99261;-75
2023/09/24 02:38:02;;;;;;;13.57;6.00;;;;;;;;;;5003117;28;100049;-75
2023/09/24 02:40:28;;;;;;;13.75;5.70;;;;;;;;;;5000577;28;100058;-75
2023/09/24 02:42:56;;;;;;;14.32;6.00;;;;;;;;;;5004344;28;98769;-75
2023/09/24 02:45:23;;;;;;;15.18;5.82;;;;;;;;;;5006563;28;100680;-74
2023/09/24 02:47:50;;;;;;;7.50;6.50;;;;;;;;;;5007082;28;99965;-74
2023/09/24 02:50:21;;;;;;;8.52;6.78;;;;;;;;;;5008905;28;101865;-74
2023/09/24 02:52:48;;;;;;;7.13;6.07;;;;;;;;;;5005486;28;100654;-75
2023/09/24 02:55:15;;;;;;;8.02;6.15;;;;;;;;;;5006982;28;98556;-73
2023/09/24 02:57:46;;;;;;;12.73;6.63;;;;;;;;;;5005696;28;100197;-75
2023/09/24 03:00:20;;;;;;;8.00;6.63;;;;;;;;;;5005817;28;99690;-74
2023/09/24 03:02:47;;;;;;;10.38;6.38;;;;;;;;;;5008234;28;99585;-74
2023/09/24 03:05:20;;;;;;;12.07;6.85;;;;;;;;;;5009496;28;100438;-76
2023/09/24 03:07:50;;;;;;;21.95;6.50;;;;;;;;;;5002915;28;102052;-75
2023/09/24 03:10:20;;;;;;;14.02;7.20;;;;;;;;;;5006470;28;102019;-75
2023/09/24 03:12:47;;;;;;;13.23;7.15;;;;;;;;;;5009375;28;100382;-74
2023/09/24 03:15:14;;;;;;;11.10;6.50;;;;;;;;;;5005072;28;101365;-74
2023/09/24 03:17:42;;;;;;;10.48;5.93;;;;;;;;;;5013701;27;99152;-75
2023/09/24 03:20:15;;;;;;;10.43;6.90;;;;;;;;;;5040421;27;102081;-75
2023/09/24 03:22:43;;;;;;;10.85;6.82;;;;;;;;;;5005278;28;101167;-74
2023/09/24 03:25:11;;;;;;;8.60;6.78;;;;;;;;;;5007460;28;99678;-76
2023/09/24 03:27:39;;;;;;;11.27;6.85;;;;;;;;;;5039224;27;101624;-77
2023/09/24 03:30:07;;;;;;;9.70;6.63;;;;;;;;;;5006359;28;99907;-75
2023/09/24 03:32:34;;;;;;;10.43;7.18;;;;;;;;;;5007176;28;99161;-74
2023/09/24 03:35:01;;;;;;;8.23;6.43;;;;;;;;;;5016754;28;98874;-75
2023/09/24 03:37:27;;;;;;;9.52;7.13;;;;;;;;;;5005695;28;99195;-75
2023/09/24 03:39:54;;;;;;;12.27;7.25;;;;;;;;;;5006886;28;99392;-75
2023/09/24 03:42:20;;;;;;;13.88;7.40;;;;;;;;;;5005026;28;102113;-74
2023/09/24 03:44:47;;;;;;;9.20;6.90;;;;;;;;;;5006543;28;99273;-75
2023/09/24 03:47:14;;;;;;;9.90;6.10;;;;;;;;;;5006513;28;99985;-75
2023/09/24 03:49:41;;;;;;;10.32;6.65;;;;;;;;;;5002901;28;100628;-74
2023/09/24 03:52:10;;;;;;;10.95;7.15;;;;;;;;;;5005802;28;100497;-76
2023/09/24 03:54:38;;;;;;;19.25;7.60;;;;;;;;;;5006738;28;98778;-74
2023/09/24 03:57:05;;;;;;;11.82;7.53;;;;;;;;;;5006243;28;101599;-75
2023/09/24 03:59:36;;;;;;;10.93;7.47;;;;;;;;;;5004636;28;101920;-74
2023/09/24 04:02:06;;;;;;;7.88;6.97;;;;;;;;;;5005073;28;101867;-75
2023/09/24 04:04:34;;;;;;;16.45;7.93;;;;;;;;;;5005201;28;99837;-74
2023/09/24 04:07:02;;;;;;;8.73;7.35;;;;;;;;;;5006515;28;98910;-76
2023/09/24 04:09:33;;;;;;;9.80;6.97;;;;;;;;;;5004729;28;99054;-76
2023/09/24 04:12:00;;;;;;;10.88;7.68;;;;;;;;;;5005793;28;100130;-75
2023/09/24 04:14:27;;;;;;;9.18;7.55;;;;;;;;;;5005677;28;99989;-74
2023/09/24 04:16:55;;;;;;;14.63;6.97;;;;;;;;;;5009308;28;101136;-76
2023/09/24 04:19:23;;;;;;;9.00;7.32;;;;;;;;;;5006395;28;99953;-75
2023/09/24 04:21:50;;;;;;;11.48;8.23;;;;;;;;;;5007455;28;101690;-74
2023/09/24 04:24:17;;;;;;;13.80;8.30;;;;;;;;;;5004970;28;99598;-74
2023/09/24 04:26:45;;;;;;;12.15;7.60;;;;;;;;;;5008167;28;100533;-74
2023/09/24 04:29:11;;;;;;;20.13;7.97;;;;;;;;;;5006109;28;100100;-75
2023/09/24 04:31:38;;;;;;;10.05;7.18;;;;;;;;;;5006563;28;99989;-73
2023/09/24 04:34:04;;;;;;;13.75;7.78;;;;;;;;;;5006827;28;100279;-74
2023/09/24 04:36:31;;;;;;;9.23;7.78;;;;;;;;;;4999343;28;99408;-74
2023/09/24 04:38:58;;;;;;;15.98;7.70;;;;;;;;;;5008876;28;101154;-74
2023/09/24 04:41:24;;;;;;;16.02;7.72;;;;;;;;;;5005853;28;100690;-74
2023/09/24 04:43:52;;;;;;;14.88;8.52;;;;;;;;;;5008411;28;99779;-73
2023/09/24 04:46:18;;;;;;;13.30;8.27;;;;;;;;;;5002342;28;100420;-75
2023/09/24 04:48:45;;;;;;;10.35;8.38;;;;;;;;;;5005494;28;99901;-74
2023/09/24 04:51:12;;;;;;;13.30;8.10;;;;;;;;;;5004245;28;100370;-74
2023/09/24 04:53:39;;;;;;;12.07;7.65;;;;;;;;;;5004281;28;99091;-74
2023/09/24 04:56:06;;;;;;;15.13;8.00;;;;;;;;;;5005540;28;100009;-74
2023/09/24 04:58:33;;;;;;;13.27;8.55;;;;;;;;;;5004968;28;99464;-75
2023/09/24 05:01:03;;;;;;;14.82;8.15;;;;;;;;;;5006780;28;99864;-74
2023/09/24 05:03:30;;;;;;;9.60;7.65;;;;;;;;;;5004739;28;100868;-73
2023/09/24 05:05:56;;;;;;;12.20;8.18;;;;;;;;;;5005485;28;99327;-74
2023/09/24 05:08:23;;;;;;;12.52;7.63;;;;;;;;;;5003314;28;99834;-74
2023/09/24 05:10:49;;;;;;;13.63;8.13;;;;;;;;;;4999451;28;99394;-75
2023/09/24 05:13:16;;;;;;;11.88;7.55;;;;;;;;;;5004491;28;99688;-74
2023/09/24 05:15:49;;;;;;;16.15;8.57;;;;;;;;;;5004306;28;99670;-73
2023/09/24 05:18:16;;;;;;;11.70;7.60;;;;;;;;;;5002674;28;100415;-73
2023/09/24 05:20:43;;;;;;;13.75;8.57;;;;;;;;;;5004959;28;98986;-75
2023/09/24 05:23:10;;;;;;;11.32;7.82;;;;;;;;;;5007966;28;99587;-74
2023/09/24 05:25:37;;;;;;;14.98;8.98;;;;;;;;;;5004830;28;98930;-74
2023/09/24 05:28:03;;;;;;;14.23;8.80;;;;;;;;;;5003254;28;99979;-75
2023/09/24 05:30:30;;;;;;;14.15;8.07;;;;;;;;;;5005159;28;100261;-74
2023/09/24 05:32:56;;;;;;;17.60;9.27;;;;;;;;;;5003836;27;100123;-75
2023/09/24 05:35:23;;;;;;;12.57;8.07;;;;;;;;;;5004706;28;100165;-75
2023/09/24 05:37:50;;;;;;;13.07;9.10;;;;;;;;;;5005162;28;100449;-75
2023/09/24 05:40:16;;;;;;;12.15;8.15;;;;;;;;;;5003131;28;100052;-75
2023/09/24 05:42:43;;;;;;;11.38;8.63;;;;;;;;;;5003537;28;100036;-75
2023/09/24 05:45:10;;;;;;;13.40;8.02;;;;;;;;;;5009328;28;99676;-75
2023/09/24 05:47:36;;;;;;;11.18;8.77;;;;;;;;;;5004310;28;99397;-75
2023/09/24 05:50:03;;;;;;;17.65;8.63;;;;;;;;;;5001517;28;100196;-75
2023/09/24 05:52:30;;;;;;;16.17;8.40;;;;;;;;;;5001741;28;101003;-76
2023/09/24 05:54:57;;;;;;;8.70;7.82;;;;;;;;;;5005066;28;99815;-75
2023/09/24 05:57:27;;;;;;;15.40;8.25;;;;;;;;;;5002956;28;100466;-74
2023/09/24 05:59:54;;;;;;;17.27;9.38;;;;;;;;;;5003855;28;100396;-74
2023/09/24 06:02:26;;;;;;;12.77;8.20;;;;;;;;;;5001719;28;99095;-73
2023/09/24 06:04:54;;;;;;;9.32;7.72;;;;;;;;;;5003576;28;100175;-74
2023/09/24 06:07:21;;;;;;;15.05;8.65;;;;;;;;;;5007819;28;99930;-75
2023/09/24 06:09:48;;;;;;;13.10;8.52;;;;;;;;;;5004319;28;99794;-74
2023/09/24 06:12:14;;;;;;;10.23;7.35;;;;;;;;;;5003454;28;99965;-75
2023/09/24 06:14:40;;;;;;;12.60;7.93;;;;;;;;;;5004471;28;98936;-73
2023/09/24 06:17:07;;;;;;;14.93;7.70;;;;;;;;;;5003311;28;100141;-74
2023/09/24 06:19:33;;;;;;;20.27;8.50;;;;;;;;;;5004228;28;98875;-75
2023/09/24 06:22:00;;;;;;;8.60;7.35;;;;;;;;;;5003911;28;99230;-74
2023/09/24 06:24:26;;;;;;;8.43;6.57;;;;;;;;;;5004603;28;100385;-75
2023/09/24 06:26:53;;;;;;;8.52;7.13;;;;;;;;;;5007064;28;99191;-75
2023/09/24 06:29:19;;;;;;;8.80;6.75;;;;;;;;;;5003141;28;100191;-75
2023/09/24 06:31:47;;;;;;;10.43;7.10;;;;;;;;;;5002815;28;100015;-74
2023/09/24 06:34:13;;;;;;;13.30;6.85;;;;;;;;;;5004367;28;98877;-74
2023/09/24 06:36:40;;;;;;;9.82;6.72;;;;;;;;;;5004259;28;100232;-76
2023/09/24 06:39:13;;;;;;;8.95;6.63;;;;;;;;;;5001380;28;99864;-73
2023/09/24 06:41:40;;;;;;;11.55;6.30;;;;;;;;;;5005567;27;99468;-74
2023/09/24 06:44:08;;;;;;;10.63;5.97;;;;;;;;;;5005172;28;99341;-74
2023/09/24 06:46:35;;;;;;;7.13;6.38;;;;;;;;;;4995208;28;99031;-72
2023/09/24 06:49:01;;;;;;;6.95;6.15;;;;;;;;;;5004769;28;99956;-74
2023/09/24 06:51:27;;;;;;;7.40;6.45;;;;;;;;;;5004131;27;100218;-75
2023/09/24 06:53:54;;;;;;;9.57;6.15;;;;;;;;;;5006785;28;99386;-74
2023/09/24 06:56:21;;;;;;;6.72;6.13;;;;;;;;;;5003565;28;99992;-74
2023/09/24 06:58:48;;;;;;;7.90;6.22;;;;;;;;;;5007854;28;99379;-74
2023/09/24 07:01:14;;;;;;;10.05;6.63;;;;;;;;;;5004731;28;98615;-73
2023/09/24 07:03:41;;;;;;;9.15;6.18;;;;;;;;;;4992926;28;100724;-75
2023/09/24 07:06:07;;;;;;;10.55;6.32;;;;;;;;;;4988516;28;99331;-73
2023/09/24 07:08:35;;;;;;;7.43;5.78;;;;;;;;;;5002633;28;101326;-73
2023/09/24 07:11:20;;;;;;;10.07;6.18;;;;;;;;;;5009875;28;99858;-74
2023/09/24 07:13:46;;;;;;;14.07;6.28;;;;;;;;;;4995009;28;100406;-75
2023/09/24 07:16:13;;;;;;;8.60;6.07;;;;;;;;;;4995834;28;100418;-74
2023/09/24 07:18:40;;;;;;;9.07;4.97;;;;;;;;;;4990859;28;100571;-76
2023/09/24 07:21:07;;;;;;;14.70;6.38;;;;;;;;;;4994460;28;100520;-75
2023/09/24 07:23:51;;;;;;;5.93;5.20;;;;;;;;;;4993934;28;99881;-74
2023/09/24 07:26:20;;;;;;;12.98;5.30;;;;;;;;;;4991751;28;100360;-75
2023/09/24 07:28:47;;;;;;;12.10;5.95;;;;;;;;;;4992476;28;100646;-76
2023/09/24 07:31:13;;;;;;;6.55;5.20;;;;;;;;;;4995567;28;101165;-76
2023/09/24 07:33:42;;;;;;;7.82;6.57;;;;;;;;;;5002438;28;101337;-77
2023/09/24 07:36:10;;;;;;;7.35;5.63;;;;;;;;;;4996254;28;100740;-75
2023/09/24 07:38:56;;;;;;;8.73;5.78;;;;;;;;;;5001429;28;100659;-76
2023/09/24 07:41:23;;;;;;;6.25;5.25;;;;;;;;;;5005759;28;99049;-76
2023/09/24 07:43:49;;;;;;;6.50;4.82;;;;;;;;;;5007505;28;99364;-77
2023/09/24 07:46:16;;;;;;;6.43;4.70;;;;;;;;;;5006858;28;99929;-74
2023/09/24 07:48:43;;;;;;;9.18;5.38;;;;;;;;;;5007005;28;100015;-77
2023/09/24 07:51:11;;;;;;;5.38;4.78;;;;;;;;;;5006286;28;99186;-76
2023/09/24 07:53:37;;;;;;;8.40;5.07;;;;;;;;;;5007077;28;99057;-75
2023/09/24 07:56:08;;;;;;;6.75;4.30;;;;;;;;;;5008564;28;99761;-76
2023/09/24 07:58:36;;;;;;;6.32;4.53;;;;;;;;;;5006709;28;100102;-76
2023/09/24 08:01:06;;;;;;;7.28;4.13;;;;;;;;;;5010125;28;100562;-76
2023/09/24 08:03:33;;;;;;;5.25;3.83;;;;;;;;;;5006971;27;100008;-76
2023/09/24 08:06:00;;;;;;;7.85;4.63;;;;;;;;;;5007520;28;99326;-75
2023/09/24 08:08:29;;;;;;;4.30;3.72;;;;;;;;;;5016993;27;99959;-76
2023/09/24 08:11:14;;;;;;;5.00;3.08;;;;;;;;;;5011067;28;99313;-75
2023/09/24 08:13:41;;;;;;;4.78;3.92;;;;;;;;;;5007303;28;99928;-77
2023/09/24 08:16:07;;;;;;;5.60;4.15;;;;;;;;;;5005269;28;99354;-74
2023/09/24 08:18:34;;;;;;;6.45;3.15;;;;;;;;;;5009537;28;99315;-76
2023/09/24 08:21:01;;;;;;;4.13;2.63;;;;;;;;;;4995243;28;100030;-75
2023/09/24 08:23:28;;;;;;;8.52;2.58;;;;;;;;;;4995111;28;100406;-75
2023/09/24 08:25:54;;;;;;;5.75;2.75;;;;;;;;;;4998562;28;99676;-76
2023/09/24 08:28:20;;;;;;;4.03;2.97;;;;;;;;;;4998531;28;99985;-76
2023/09/24 08:30:47;;;;;;;8.15;2.90;;;;;;;;;;4992300;28;100185;-76
2023/09/24 08:33:14;;;;;;;9.00;2.22;;;;;;;;;;4995125;28;99949;-76
2023/09/24 08:35:40;;;;;;;4.47;2.42;;;;;;;;;;5001049;28;101126;-74
2023/09/24 08:38:07;;;;;;;2.33;2.10;;;;;;;;;;5000799;28;99635;-75
2023/09/24 08:40:33;;;;;;;5.90;1.80;;;;;;;;;;4997995;28;98696;-75
2023/09/24 08:43:04;;;;;;;3.00;2.10;;;;;;;;;;4997191;28;100231;-74
2023/09/24 08:45:31;;;;;;;2.53;2.05;;;;;;;;;;4997735;28;100649;-75
2023/09/24 08:48:00;;;;;;;6.43;1.95;;;;;;;;;;4994939;28;101200;-75
2023/09/24 08:50:27;;;;;;;8.18;2.00;;;;;;;;;;4998854;28;101893;-75
2023/09/24 08:52:54;;;;;;;9.25;3.25;;;;;;;;;;4995513;28;99213;-80
2023/09/24 08:55:21;;;;;;;6.32;1.80;;;;;;;;;;4999200;28;100418;-76
2023/09/24 08:57:47;;;;;;;3.25;1.80;;;;;;;;;;5002372;28;100394;-75
2023/09/24 09:00:15;;;;;;;3.97;1.90;;;;;;;;;;5008507;28;100056;-76
2023/09/24 09:02:45;;;;;;;16.17;2.20;;;;;;;;;;5000270;28;99793;-77
2023/09/24 09:05:22;;;;;;;3.67;1.90;;;;;;;;;;4996652;28;100094;-81
2023/09/24 09:07:59;;;;;;;3.00;1.63;;;;;;;;;;4999276;28;99932;-76
2023/09/24 09:10:27;;;;;;;7.82;2.20;;;;;;;;;;4997780;28;101204;-75
2023/09/24 09:13:06;;;;;;;4.18;1.92;;;;;;;;;;4996306;28;100633;-77
2023/09/24 09:15:33;;;;;;;4.50;2.00;;;;;;;;;;4995935;28;100132;-74
2023/09/24 09:18:00;;;;;;;5.95;1.70;;;;;;;;;;4998756;28;100255;-75
2023/09/24 09:20:43;;;;;;;3.08;1.92;;;;;;;;;;4999547;28;100338;-75
2023/09/24 09:23:12;;;;;;;2.40;1.70;;;;;;;;;;5003388;28;99847;-75
2023/09/24 09:25:49;;;;;;;6.00;1.92;;;;;;;;;;4996143;28;100002;-74
2023/09/24 09:28:23;;;;;;;4.75;1.30;;;;;;;;;;4997653;28;99963;-73
2023/09/24 09:31:06;;;;;;;2.50;1.38;;;;;;;;;;5009674;28;98985;-74
2023/09/24 09:33:41;;;;;;;2.55;1.58;;;;;;;;;;4999587;28;101793;-75
2023/09/24 09:36:27;;;;;;;3.42;1.65;;;;;;;;;;4998217;28;101015;-76
2023/09/24 09:38:55;;;;;;;7.88;1.88;;;;;;;;;;4999642;28;99538;-75
2023/09/24 09:41:26;;;;;;;5.90;1.80;;;;;;;;;;4995730;28;100355;-74
2023/09/24 09:43:53;;;;;;;4.75;1.85;;;;;;;;;;4996835;28;100196;-75
2023/09/24 09:46:23;;;;;;;3.08;1.48;;;;;;;;;;4999523;27;100085;-75
2023/09/24 09:48:50;;;;;;;13.02;6.05;;;;;;;;;;4995969;28;99870;-73
2023/09/24 09:51:18;;;;;;;4.63;2.13;;;;;;;;;;4993754;28;100185;-74
2023/09/24 09:53:45;;;;;;;12.07;3.78;;;;;;;;;;4996349;28;99950;-74
2023/09/24 09:56:12;;;;;;;10.80;2.40;;;;;;;;;;4996153;28;99262;-74
2023/09/24 09:58:38;;;;;;;3.97;1.98;;;;;;;;;;4999545;28;99913;-74
2023/09/24 10:01:06;;;;;;;2.40;1.80;;;;;;;;;;4996800;28;101383;-75
2023/09/24 10:03:34;;;;;;;2.85;1.38;;;;;;;;;;4993814;28;99840;-74
2023/09/24 10:06:02;;;;;;;3.90;1.70;;;;;;;;;;4995751;28;100742;-76
2023/09/24 10:08:35;;;;;;;4.70;2.47;;;;;;;;;;5001235;28;101709;-78
2023/09/24 10:11:04;;;;;;;4.72;1.48;;;;;;;;;;4996460;28;100259;-74
2023/09/24 10:13:43;;;;;;;5.43;1.60;;;;;;;;;;4999166;28;100319;-75
2023/09/24 10:16:25;;;;;;;6.45;2.03;;;;;;;;;;5001210;28;99032;-79
2023/09/24 10:18:55;;;;;;;2.88;1.52;;;;;;;;;;4998261;28;99178;-76
2023/09/24 10:21:32;;;;;;;2.00;1.63;;;;;;;;;;4992539;28;100400;-74
2023/09/24 10:23:59;;;;;;;2.42;1.20;;;;;;;;;;4996911;28;99970;-74
2023/09/24 10:26:44;;;;;;;7.78;1.55;;;;;;;;;;5004473;27;100572;-74
2023/09/24 10:29:11;;;;;;;4.25;1.80;;;;;;;;;;5003157;28;99870;-75
2023/09/24 10:31:56;;;;;;;3.58;1.58;;;;;;;;;;5004484;28;100269;-73
2023/09/24 10:34:23;;;;;;;5.00;1.42;;;;;;;;;;4998325;28;100067;-74
2023/09/24 10:37:08;;;;;;;5.05;1.30;;;;;;;;;;5002982;28;100003;-74
2023/09/24 10:39:55;;;;;;;6.57;1.83;;;;;;;;;;5005360;28;101217;-74
2023/09/24 10:42:21;;;;;;;2.92;1.85;;;;;;;;;;5001750;28;99859;-74
2023/09/24 10:45:08;;;;;;;2.25;1.20;;;;;;;;;;5000134;28;100031;-75
2023/09/24 10:47:42;;;;;;;3.33;1.40;;;;;;;;;;5003421;28;100179;-77
2023/09/24 10:50:10;;;;;;;2.92;1.75;;;;;;;;;;5003156;28;99938;-75
2023/09/24 10:52:53;;;;;;;6.10;1.73;;;;;;;;;;5005142;28;100379;-75
2023/09/24 10:55:20;;;;;;;4.18;1.45;;;;;;;;;;5003543;28;100772;-76
2023/09/24 10:57:47;;;;;;;2.75;1.40;;;;;;;;;;5003700;28;100117;-77
2023/09/24 11:00:15;;;;;;;6.40;1.67;;;;;;;;;;5004917;28;100192;-76
2023/09/24 11:02:43;;;;;;;4.88;1.60;;;;;;;;;;5003367;28;99880;-76
2023/09/24 11:05:10;;;;;;;2.72;1.35;;;;;;;;;;5001214;28;100282;-74
2023/09/24 11:07:37;;;;;;;1.77;1.50;;;;;;;;;;5005638;28;99726;-75
2023/09/24 11:10:04;;;;;;;3.05;1.33;;;;;;;;;;5002536;28;99902;-76
2023/09/24 11:12:31;;;;;;;4.63;1.20;;;;;;;;;;5003631;28;99737;-76
2023/09/24 11:14:58;;;;;;;16.27;2.03;;;;;;;;;;5009588;28;100097;-74
2023/09/24 11:17:28;;;;;;;8.13;1.50;;;;;;;;;;5007000;28;99220;-75
2023/09/24 11:19:54;;;;;;;2.72;1.33;;;;;;;;;;5006187;28;100142;-76
2023/09/24 11:22:22;;;;;;;5.40;1.45;;;;;;;;;;5006669;28;99119;-76
2023/09/24 11:25:11;;;;;;;2.83;1.05;;;;;;;;;;5006999;28;100219;-78
2023/09/24 11:27:43;;;;;;;1.80;1.50;;;;;;;;;;5005866;28;100208;-76
2023/09/24 11:30:10;;;;;;;2.70;1.20;;;;;;;;;;5000794;28;100206;-77
2023/09/24 11:32:37;;;;;;;3.10;1.20;;;;;;;;;;5003698;28;99734;-76
2023/09/24 11:35:06;;;;;;;6.28;1.10;;;;;;;;;;5004232;28;98657;-76
2023/09/24 11:37:46;;;;;;;5.03;1.50;;;;;;;;;;5004560;28;99546;-75
2023/09/24 11:40:25;;;;;;;4.57;1.33;;;;;;;;;;4998635;28;99471;-75
2023/09/24 11:42:53;;;;;;;4.65;1.23;;;;;;;;;;5005510;28;99927;-76
2023/09/24 11:45:50;;;;;;;2.13;1.48;;;;;;;;;;5000881;28;100530;-76
2023/09/24 11:48:17;;;;;;;2.42;1.10;;;;;;;;;;4998273;28;100555;-74
2023/09/24 11:50:53;;;;;;;4.80;1.15;;;;;;;;;;4999604;28;99082;-76
2023/09/24 11:53:21;;;;;;;5.00;1.35;;;;;;;;;;4997723;28;100384;-74
2023/09/24 11:55:51;;;;;;;2.95;1.35;;;;;;;;;;4997257;28;100085;-74
2023/09/24 11:58:17;;;;;;;5.18;1.65;;;;;;;;;;5001092;28;100022;-75
2023/09/24 12:00:44;;;;;;;4.13;1.48;;;;;;;;;;5006831;28;99721;-76
2023/09/24 12:03:11;;;;;;;1.67;1.27;;;;;;;;;;5001076;28;101465;-74
2023/09/24 12:05:38;;;;;;;4.15;1.10;;;;;;;;;;5004358;28;100076;-75
2023/09/24 12:08:05;;;;;;;1.40;1.13;;;;;;;;;;5005047;28;101104;-74
2023/09/24 12:10:33;;;;;;;2.00;1.17;;;;;;;;;;5005287;28;100020;-76
2023/09/24 12:13:02;;;;;;;5.85;1.50;;;;;;;;;;5006041;28;99940;-76
2023/09/24 12:15:29;;;;;;;1.58;1.13;;;;;;;;;;4997672;28;99955;-75
2023/09/24 12:17:56;;;;;;;0.93;0.90;;;;;;;;;;4997786;28;100327;-75
2023/09/24 12:20:24;;;;;;;1.42;1.33;;;;;;;;;;5005790;28;99590;-77
2023/09/24 12:22:51;;;;;;;1.65;0.98;;;;;;;;;;5008543;28;100551;-76
2023/09/24 12:25:17;;;;;;;2.38;1.55;;;;;;;;;;5006003;28;99551;-75
2023/09/24 12:27:46;;;;;;;1.92;1.00;;;;;;;;;;5005681;28;100293;-76
2023/09/24 12:30:12;;;;;;;3.38;1.00;;;;;;;;;;5004570;28;100497;-74
2023/09/24 12:32:39;;;;;;;3.92;1.63;;;;;;;;;;5004411;28;100358;-74
2023/09/24 12:35:07;;;;;;;4.40;1.00;;;;;;;;;;5004954;28;100219;-76
2023/09/24 12:37:35;;;;;;;2.00;1.10;;;;;;;;;;5000184;28;100134;-74
2023/09/24 12:40:07;;;;;;;1.30;1.10;;;;;;;;;;5006513;28;99846;-75
2023/09/24 12:42:34;;;;;;;1.95;1.00;;;;;;;;;;4998581;28;100123;-75
2023/09/24 12:45:01;;;;;;;8.85;1.67;;;;;;;;;;5008745;28;98905;-73
2023/09/24 12:47:33;;;;;;;3.50;1.40;;;;;;;;;;5005423;28;100407;-73
2023/09/24 12:50:03;;;;;;;1.50;0.90;;;;;;;;;;5006159;28;98976;-75
2023/09/24 12:52:31;;;;;;;2.92;1.25;;;;;;;;;;5004521;28;99175;-74
2023/09/24 12:54:59;;;;;;;2.35;1.45;;;;;;;;;;5005964;28;100227;-73
2023/09/24 12:57:26;;;;;;;3.67;1.30;;;;;;;;;;5001909;28;99943;-75
2023/09/24 12:59:52;;;;;;;5.75;1.45;;;;;;;;;;5006297;28;100928;-74
2023/09/24 13:02:19;;;;;;;1.55;1.20;;;;;;;;;;5009281;28;100210;-75
2023/09/24 13:04:46;;;;;;;6.03;1.67;;;;;;;;;;5008481;28;100129;-73
2023/09/24 13:07:13;;;;;;;3.47;1.40;;;;;;;;;;5005419;28;100337;-73
2023/09/24 13:09:40;;;;;;;2.58;1.00;;;;;;;;;;5006011;28;99265;-75
2023/09/24 13:12:07;;;;;;;3.88;1.17;;;;;;;;;;5004808;28;99577;-73
2023/09/24 13:14:35;;;;;;;2.10;1.15;;;;;;;;;;5005275;28;99592;-74
2023/09/24 13:17:01;;;;;;;1.92;1.10;;;;;;;;;;5005521;28;99931;-74
2023/09/24 13:19:28;;;;;;;3.67;1.58;;;;;;;;;;5004288;28;99050;-74
2023/09/24 13:21:55;;;;;;;5.50;1.40;;;;;;;;;;5004667;28;101246;-74
2023/09/24 13:24:22;;;;;;;3.63;1.40;;;;;;;;;;5005235;28;98871;-74
2023/09/24 13:26:48;;;;;;;3.10;1.33;;;;;;;;;;5008231;28;99916;-74
2023/09/24 13:29:15;;;;;;;3.95;1.58;;;;;;;;;;5003986;28;99015;-74
2023/09/24 13:31:44;;;;;;;1.35;1.02;;;;;;;;;;5004780;28;99997;-75
2023/09/24 13:34:11;;;;;;;5.10;1.35;;;;;;;;;;4999868;28;99472;-73
2023/09/24 13:36:38;;;;;;;3.80;1.10;;;;;;;;;;5004295;28;100425;-76
2023/09/24 13:39:04;;;;;;;3.58;1.30;;;;;;;;;;5005372;28;99870;-74
2023/09/24 13:41:31;;;;;;;1.98;1.42;;;;;;;;;;5004485;28;100256;-75
2023/09/24 13:43:58;;;;;;;2.72;1.30;;;;;;;;;;5012093;27;100025;-74
2023/09/24 13:46:24;;;;;;;7.68;1.73;;;;;;;;;;5004427;28;99798;-74
2023/09/24 13:48:53;;;;;;;1.38;1.30;;;;;;;;;;5007617;28;100297;-74
2023/09/24 13:51:20;;;;;;;2.47;1.13;;;;;;;;;;5004484;28;100220;-74
2023/09/24 13:53:49;;;;;;;2.08;1.10;;;;;;;;;;5004117;28;99533;-75
2023/09/24 13:56:16;;;;;;;4.38;1.10;;;;;;;;;;5004939;28;100006;-75
2023/09/24 13:58:43;;;;;;;2.33;1.20;;;;;;;;;;5014244;27;99408;-74
2023/09/24 14:01:10;;;;;;;1.33;1.20;;;;;;;;;;5009125;28;100489;-75
2023/09/24 14:03:37;;;;;;;3.38;1.23;;;;;;;;;;5005232;28;100090;-75
2023/09/24 14:06:04;;;;;;;2.17;1.23;;;;;;;;;;5004637;28;98675;-75
2023/09/24 14:14:05;;;;;;;1.70;1.10;;;;;;;;;;4997515;28;99403;-75
2023/09/24 14:16:31;;;;;;;1.08;0.98;;;;;;;;;;5003204;28;99456;-75
2023/09/24 14:18:58;;;;;;;2.33;1.30;;;;;;;;;;5004520;28;99912;-74
2023/09/24 14:21:25;;;;;;;1.88;1.10;;;;;;;;;;5004107;28;100449;-75
2023/09/24 14:23:52;;;;;;;1.95;1.13;;;;;;;;;;5004049;28;99819;-74
2023/09/24 14:26:18;;;;;;;3.40;1.63;;;;;;;;;;5004121;28;100069;-74
2023/09/24 14:28:44;;;;;;;1.58;1.33;;;;;;;;;;5005197;28;99462;-76
2023/09/24 14:31:11;;;;;;;2.60;1.10;;;;;;;;;;5003131;28;99634;-74
2023/09/24 14:33:38;;;;;;;2.88;1.02;;;;;;;;;;5004446;28;98866;-76
2023/09/24 14:36:05;;;;;;;2.42;1.10;;;;;;;;;;5002774;28;99437;-75
2023/09/24 14:38:31;;;;;;;5.00;1.20;;;;;;;;;;5003514;28;100431;-73
2023/09/24 14:40:58;;;;;;;1.23;1.13;;;;;;;;;;4998962;27;100148;-75
2023/09/24 14:43:26;;;;;;;1.40;1.15;;;;;;;;;;5006285;28;99877;-74
2023/09/24 14:45:58;;;;;;;1.92;1.20;;;;;;;;;;5007482;28;99857;-75